Time;durP1;ratioP1;P1;durP2;ratioP2;P2;SDS_P1;SDS_P2;PMS_P1;PMS_P2;Temp;Humidity;BMP_temperature;BMP_pressure;BME280_temperature;BME280_humidity;BME280_pressure;Samples;Min_cycle;Max_cycle;Signal;HPM_P1;HPM_P2
2024/01/09 00:00:26;;;;;;;6.25;2.70;;;;;;;;;;5091945;27;20072;-84
2024/01/09 00:02:52;;;;;;;8.02;3.15;;;;;;;;;;5110189;27;20053;-84
2024/01/09 00:05:18;;;;;;;9.13;4.07;;;-3.80;99.90;;;;;;5121265;27;20071;-86
2024/01/09 00:07:44;;;;;;;7.18;3.35;;;;;;;;;;5126235;27;20122;-84
2024/01/09 00:10:10;;;;;;;8.20;3.63;;;-3.50;99.90;;;;;;5113541;27;20043;-83
2024/01/09 00:12:36;;;;;;;6.55;2.88;;;;;;;;;;5090838;28;20053;-83
2024/01/09 00:15:04;;;;;;;5.28;2.30;;;;;;;;;;5126360;27;20740;-83
2024/01/09 00:17:30;;;;;;;7.57;3.97;;;;;;;;;;5138793;27;20495;-85
2024/01/09 00:19:56;;;;;;;10.77;3.95;;;;;;;;;;5122677;27;20047;-85
2024/01/09 00:22:22;;;;;;;9.63;3.90;;;;;;;;;;5090401;28;20047;-83
2024/01/09 00:24:48;;;;;;;8.98;2.50;;;-4.40;99.90;;;;;;5100061;27;20567;-86
2024/01/09 00:27:14;;;;;;;6.82;3.05;;;;;;;;;;5111015;27;20124;-86
2024/01/09 00:29:40;;;;;;;7.57;3.08;;;;;;;;;;5115841;27;20042;-86
2024/01/09 00:32:06;;;;;;;8.88;3.05;;;-4.10;99.90;;;;;;5129498;27;20390;-84
2024/01/09 00:34:32;;;;;;;7.03;3.05;;;;;;;;;;5116676;27;20047;-85
2024/01/09 00:36:58;;;;;;;7.80;2.92;;;;;;;;;;5098457;28;20050;-86
2024/01/09 00:39:24;;;;;;;7.45;3.40;;;-4.10;99.90;;;;;;5119340;27;20074;-89
2024/01/09 00:41:50;;;;;;;9.55;3.30;;;;;;;;;;5104445;27;20081;-86
2024/01/09 00:44:16;;;;;;;12.82;4.68;;;-4.30;99.90;;;;;;5109241;27;20043;-87
2024/01/09 00:46:42;;;;;;;8.68;3.05;;;;;;;;;;5109554;27;20041;-83
2024/01/09 00:49:09;;;;;;;7.03;3.40;;;;;;;;;;5108928;27;20039;-85
2024/01/09 00:51:35;;;;;;;10.25;3.30;;;;;;;;;;5091759;27;20484;-84
2024/01/09 00:54:01;;;;;;;9.10;2.97;;;;;;;;;;5108368;27;20043;-85
2024/01/09 00:56:27;;;;;;;17.63;4.68;;;-4.60;99.90;;;;;;5093648;27;20100;-82
2024/01/09 00:58:54;;;;;;;7.00;3.15;;;;;;;;;;5090538;27;20413;-83
2024/01/09 01:01:20;;;;;;;14.38;4.45;;;;;;;;;;5119183;27;20485;-83
2024/01/09 01:03:45;;;;;;;10.13;3.42;;;-4.70;99.90;;;;;;5089799;28;21037;-82
2024/01/09 01:06:12;;;;;;;9.13;3.38;;;;;;;;;;5125643;27;20141;-83
2024/01/09 01:08:38;;;;;;;8.73;2.83;;;;;;;;;;5103608;27;20081;-86
2024/01/09 01:11:06;;;;;;;8.80;4.07;;;-4.80;99.90;;;;;;5127741;27;20051;-84
2024/01/09 01:13:32;;;;;;;9.48;3.70;;;;;;;;;;5128366;27;20442;-81
2024/01/09 01:15:58;;;;;;;9.60;4.28;;;;;;;;;;5122602;28;20050;-82
2024/01/09 01:18:24;;;;;;;8.38;3.50;;;;;;;;;;5116121;27;20061;-82
2024/01/09 01:20:50;;;;;;;9.18;4.05;;;;;;;;;;5110566;27;20047;-85
2024/01/09 01:23:16;;;;;;;11.63;3.53;;;;;;;;;;5127749;27;20047;-83
2024/01/09 01:25:42;;;;;;;8.90;4.57;;;;;;;;;;5128293;27;20043;-82
2024/01/09 01:28:09;;;;;;;11.77;4.00;;;;;;;;;;5096424;27;20126;-82
2024/01/09 01:30:35;;;;;;;13.55;4.57;;;;;;;;;;5091074;27;20047;-83
2024/01/09 01:33:02;;;;;;;9.48;4.05;;;;;;;;;;5105153;27;20039;-84
2024/01/09 01:35:28;;;;;;;8.43;3.90;;;;;;;;;;5128910;27;20043;-85
2024/01/09 01:37:54;;;;;;;10.73;5.45;;;;;;;;;;5129594;27;20248;-81
2024/01/09 01:40:20;;;;;;;12.05;4.57;;;-5.20;99.90;;;;;;5110943;27;20938;-83
2024/01/09 01:42:45;;;;;;;7.65;3.97;;;-4.90;99.90;;;;;;5110124;27;20039;-82
2024/01/09 01:45:18;;;;;;;10.27;4.45;;;-5.10;99.90;;;;;;5126538;27;20566;-84
2024/01/09 01:47:48;;;;;;;10.90;4.95;;;-5.40;99.90;;;;;;5115055;27;20104;-82
2024/01/09 01:50:15;;;;;;;8.80;4.43;;;-5.20;99.90;;;;;;5099003;27;20042;-82
2024/01/09 01:52:41;;;;;;;8.55;4.25;;;-5.30;99.90;;;;;;5113138;27;20115;-83
2024/01/09 01:55:09;;;;;;;10.57;4.82;;;-4.70;99.90;;;;;;5109826;27;20046;-83
2024/01/09 01:57:37;;;;;;;12.95;4.95;;;-5.20;99.90;;;;;;5109596;27;20043;-84
2024/01/09 02:00:03;;;;;;;8.30;4.28;;;;;;;;;;5091995;27;20047;-88
2024/01/09 02:02:30;;;;;;;13.25;5.32;;;-5.20;99.90;;;;;;5110676;27;20405;-85
2024/01/09 02:04:56;;;;;;;9.40;4.50;;;-5.00;99.90;;;;;;5093796;27;20035;-86
2024/01/09 02:07:25;;;;;;;9.48;4.28;;;-5.00;99.90;;;;;;5118208;27;20145;-83
2024/01/09 02:09:53;;;;;;;9.32;4.53;;;-4.00;99.90;;;;;;5121127;27;20031;-87
2024/01/09 02:12:19;;;;;;;10.93;4.47;;;-4.90;99.90;;;;;;5106260;27;20038;-87
2024/01/09 02:14:46;;;;;;;14.23;5.10;;;-5.00;99.90;;;;;;5101680;27;20601;-87
2024/01/09 02:17:13;;;;;;;9.98;4.28;;;-4.90;99.90;;;;;;5098742;27;20647;-87
2024/01/09 02:19:39;;;;;;;12.85;4.75;;;;;;;;;;5108826;27;20042;-84
2024/01/09 02:22:05;;;;;;;9.38;3.75;;;;;;;;;;5095747;27;20039;-84
2024/01/09 02:24:31;;;;;;;14.77;5.32;;;;;;;;;;5110194;27;20046;-89
2024/01/09 02:27:15;;;;;;;8.05;4.03;;;-4.90;99.90;;;;;;5124068;27;20100;-84
2024/01/09 02:29:50;;;;;;;8.38;3.33;;;-4.70;99.90;;;;;;5129103;27;20479;-89
2024/01/09 02:32:18;;;;;;;10.05;3.63;;;-4.80;99.90;;;;;;5109860;27;20051;-85
2024/01/09 02:34:45;;;;;;;10.55;4.05;;;-4.90;99.90;;;;;;5092464;27;20050;-86
2024/01/09 02:37:11;;;;;;;9.07;4.05;;;;;;;;;;5114244;27;20058;-87
2024/01/09 02:39:38;;;;;;;8.90;3.72;;;;;;;;;;5108695;27;20051;-85
2024/01/09 02:42:04;;;;;;;6.63;3.17;;;;;;;;;;5118459;27;20043;-85
2024/01/09 02:44:30;;;;;;;7.32;4.03;;;;;;;;;;5102334;27;20456;-87
2024/01/09 02:46:56;;;;;;;9.10;3.70;;;;;;;;;;5104689;27;20046;-86
2024/01/09 02:49:25;;;;;;;9.32;3.50;;;-4.90;99.90;;;;;;5110150;27;20043;-89
2024/01/09 02:51:52;;;;;;;9.43;3.78;;;-4.80;99.90;;;;;;5100111;27;20034;-86
2024/01/09 02:54:21;;;;;;;8.63;3.40;;;-4.80;99.90;;;;;;5105903;27;20404;-88
2024/01/09 02:56:47;;;;;;;8.40;3.67;;;;;;;;;;5099481;27;20113;-85
2024/01/09 02:59:13;;;;;;;8.30;3.75;;;;;;;;;;5129174;27;20074;-85
2024/01/09 03:01:39;;;;;;;11.38;3.45;;;-4.70;99.90;;;;;;5128141;27;20122;-84
2024/01/09 03:04:05;;;;;;;8.90;2.55;;;;;;;;;;5104583;27;20749;-85
2024/01/09 03:06:31;;;;;;;8.98;3.17;;;;;;;;;;5123597;27;20089;-85
2024/01/09 03:08:57;;;;;;;11.35;3.92;;;;;;;;;;5091524;27;20051;-84
2024/01/09 03:11:24;;;;;;;9.35;3.42;;;;;;;;;;5098830;27;20081;-83
2024/01/09 03:13:50;;;;;;;8.52;3.97;;;-4.90;99.90;;;;;;5100626;27;20042;-82
2024/01/09 03:16:16;;;;;;;8.27;3.72;;;-4.70;99.90;;;;;;5127788;27;20123;-87
2024/01/09 03:18:45;;;;;;;12.02;4.40;;;-4.90;99.90;;;;;;5110871;27;20047;-85
2024/01/09 03:21:12;;;;;;;6.88;2.88;;;;;;;;;;5110347;27;20039;-83
2024/01/09 03:23:38;;;;;;;7.43;3.08;;;;;;;;;;5110031;27;20046;-87
2024/01/09 03:26:04;;;;;;;10.85;3.60;;;;;;;;;;5126054;27;20049;-86
2024/01/09 03:28:30;;;;;;;8.95;3.17;;;;;;;;;;5109895;27;20440;-84
2024/01/09 03:30:56;;;;;;;6.57;2.75;;;;;;;;;;5127418;27;20041;-88
2024/01/09 03:33:23;;;;;;;10.43;4.20;;;;;;;;;;5090894;27;20035;-86
2024/01/09 03:35:49;;;;;;;7.65;4.35;;;;;;;;;;5106423;27;20645;-85
2024/01/09 03:38:15;;;;;;;7.88;3.58;;;;;;;;;;5101893;27;20123;-86
2024/01/09 03:40:41;;;;;;;7.47;3.40;;;-4.90;99.90;;;;;;5128152;27;20035;-87
2024/01/09 03:43:08;;;;;;;8.13;3.13;;;-4.90;99.90;;;;;;5110570;27;20046;-82
2024/01/09 03:45:34;;;;;;;7.75;3.47;;;;;;;;;;5110632;27;20073;-84
2024/01/09 03:48:00;;;;;;;8.07;3.00;;;;;;;;;;5110718;27;20077;-81
2024/01/09 03:50:26;;;;;;;6.90;3.35;;;;;;;;;;5120606;27;20074;-83
2024/01/09 03:52:53;;;;;;;8.90;2.88;;;;;;;;;;5109471;27;20111;-82
2024/01/09 03:55:19;;;;;;;10.05;3.92;;;;;;;;;;5103651;27;20121;-86
2024/01/09 03:57:45;;;;;;;9.02;3.30;;;-5.40;99.90;;;;;;5113433;27;20046;-87
2024/01/09 04:00:12;;;;;;;8.10;3.78;;;-8.00;99.90;;;;;;5106963;27;20043;-84
2024/01/09 04:02:38;;;;;;;7.35;2.88;;;-5.30;99.90;;;;;;5113376;27;20047;-86
2024/01/09 04:05:06;;;;;;;7.97;2.90;;;-5.40;99.90;;;;;;5110217;27;20042;-84
2024/01/09 04:07:32;;;;;;;11.35;4.43;;;;;;;;;;5106574;27;20058;-86
2024/01/09 04:09:58;;;;;;;10.77;3.55;;;;;;;;;;5107761;27;20042;-83
2024/01/09 04:12:24;;;;;;;6.68;2.80;;;;;;;;;;5108789;27;20111;-84
2024/01/09 04:14:50;;;;;;;7.35;3.72;;;-5.90;99.90;;;;;;5089724;27;20502;-86
2024/01/09 04:17:16;;;;;;;8.02;3.35;;;;;;;;;;5089886;27;20043;-87
2024/01/09 04:19:42;;;;;;;8.63;4.10;;;;;;;;;;5091160;27;20047;-82
2024/01/09 04:22:08;;;;;;;8.20;3.33;;;-5.60;99.90;;;;;;5097856;27;20484;-86
2024/01/09 04:24:34;;;;;;;10.45;4.53;;;;;;;;;;5104504;27;20057;-82
2024/01/09 04:27:03;;;;;;;10.70;3.08;;;-5.80;99.90;;;;;;5111021;27;20479;-84
2024/01/09 04:29:29;;;;;;;7.68;3.42;;;;;;;;;;5107992;28;20069;-85
2024/01/09 04:31:55;;;;;;;7.63;3.00;;;;;;;;;;5090630;28;20035;-85
2024/01/09 04:34:22;;;;;;;8.70;3.58;;;;;;;;;;5089549;28;20046;-84
2024/01/09 04:36:48;;;;;;;9.43;3.08;;;;;;;;;;5089541;28;20054;-86
2024/01/09 04:39:14;;;;;;;9.40;3.17;;;-5.70;99.90;;;;;;5092937;27;20035;-86
2024/01/09 04:41:40;;;;;;;6.88;3.25;;;-5.60;99.90;;;;;;5099577;27;21101;-83
2024/01/09 04:44:06;;;;;;;9.30;3.50;;;;;;;;;;5106338;27;20043;-84
2024/01/09 04:46:32;;;;;;;9.60;4.03;;;;;;;;;;5106540;27;20046;-83
2024/01/09 04:48:58;;;;;;;8.18;3.33;;;;;;;;;;5089105;27;20039;-84
2024/01/09 04:51:24;;;;;;;9.43;3.45;;;-5.80;99.90;;;;;;5088768;27;20039;-81
2024/01/09 04:53:51;;;;;;;8.38;3.03;;;;;;;;;;5088692;28;20054;-82
2024/01/09 04:56:17;;;;;;;10.35;3.42;;;-5.70;99.90;;;;;;5109954;27;20087;-83
2024/01/09 04:58:45;;;;;;;8.80;3.53;;;-5.60;99.90;;;;;;5093379;27;20130;-87
2024/01/09 05:01:11;;;;;;;12.43;3.38;;;-5.80;99.90;;;;;;5093264;27;20639;-84
2024/01/09 05:03:37;;;;;;;8.70;2.67;;;-5.70;99.90;;;;;;5111080;27;20053;-83
2024/01/09 05:06:03;;;;;;;8.27;3.53;;;;;;;;;;5112331;27;20035;-84
2024/01/09 05:08:29;;;;;;;14.32;3.35;;;;;;;;;;5112533;27;20042;-83
2024/01/09 05:10:55;;;;;;;8.00;3.25;;;;;;;;;;5129499;27;20039;-83
2024/01/09 05:13:21;;;;;;;7.55;2.88;;;-5.90;99.90;;;;;;5148598;27;20493;-84
2024/01/09 05:15:47;;;;;;;6.40;3.20;;;-5.80;99.90;;;;;;5129372;27;20054;-82
2024/01/09 05:18:13;;;;;;;6.25;2.50;;;-5.90;99.90;;;;;;5100422;27;20042;-84
2024/01/09 05:20:39;;;;;;;9.57;4.15;;;;;;;;;;5129976;27;20486;-82
2024/01/09 05:23:05;;;;;;;8.60;3.72;;;-5.90;99.90;;;;;;5112607;27;20042;-82
2024/01/09 05:25:31;;;;;;;8.18;3.00;;;-6.10;99.90;;;;;;5112379;27;20943;-83
2024/01/09 05:27:57;;;;;;;6.00;2.72;;;-6.00;99.90;;;;;;5129319;27;20082;-82
2024/01/09 05:30:22;;;;;;;9.32;4.15;;;-6.00;99.90;;;;;;5118034;27;20381;-79
2024/01/09 05:32:48;;;;;;;7.55;3.20;;;-6.00;99.90;;;;;;5125827;27;20460;-81
2024/01/09 05:35:14;;;;;;;7.90;3.20;;;-6.10;99.90;;;;;;5096026;27;20523;-82
2024/01/09 05:37:40;;;;;;;9.18;3.40;;;-6.00;99.90;;;;;;5095585;27;20455;-81
2024/01/09 05:40:07;;;;;;;6.60;3.17;;;-6.20;99.90;;;;;;5117098;27;20039;-80
2024/01/09 05:42:33;;;;;;;9.57;4.07;;;-6.10;99.90;;;;;;5131923;27;20082;-82
2024/01/09 05:44:59;;;;;;;6.85;3.08;;;;;;;;;;5109245;27;20100;-81
2024/01/09 05:47:25;;;;;;;8.38;3.22;;;-6.10;99.90;;;;;;5102863;27;20061;-83
2024/01/09 05:49:50;;;;;;;7.63;3.05;;;-6.40;99.90;;;;;;5107841;27;20518;-82
2024/01/09 05:52:16;;;;;;;8.55;3.60;;;-6.40;99.90;;;;;;5101020;27;20047;-82
2024/01/09 05:54:46;;;;;;;11.07;4.00;;;-6.20;99.90;;;;;;5103938;27;20091;-82
2024/01/09 05:57:12;;;;;;;12.30;3.20;;;-6.10;99.90;;;;;;5112335;27;20103;-82
2024/01/09 05:59:38;;;;;;;8.00;3.17;;;-6.20;99.90;;;;;;5112389;27;20189;-86
2024/01/09 06:02:04;;;;;;;7.65;3.22;;;-6.20;99.90;;;;;;5109043;27;20035;-84
2024/01/09 06:04:30;;;;;;;7.00;2.95;;;-6.20;99.90;;;;;;5109430;27;20057;-84
2024/01/09 06:06:56;;;;;;;8.23;3.30;;;-5.90;99.90;;;;;;5121949;27;20031;-83
2024/01/09 06:09:22;;;;;;;5.97;2.95;;;-5.10;99.90;;;;;;5121879;27;20416;-82
2024/01/09 06:11:48;;;;;;;10.70;3.55;;;-6.30;99.90;;;;;;5120049;27;20043;-83
2024/01/09 06:14:13;;;;;;;7.28;3.00;;;-6.20;99.90;;;;;;5133509;27;20513;-83
2024/01/09 06:16:42;;;;;;;8.63;3.13;;;-6.20;99.90;;;;;;5121190;27;20045;-84
2024/01/09 06:19:08;;;;;;;6.55;3.58;;;-6.30;99.90;;;;;;5117793;27;20043;-83
2024/01/09 06:21:34;;;;;;;8.90;3.80;;;-6.40;99.90;;;;;;5121206;27;20074;-80
2024/01/09 06:24:00;;;;;;;7.43;2.75;;;-6.30;99.90;;;;;;5110721;27;20081;-83
2024/01/09 06:26:26;;;;;;;9.05;3.25;;;;;;;;;;5112324;27;20471;-84
2024/01/09 06:28:52;;;;;;;10.98;3.80;;;-6.20;99.90;;;;;;5124553;27;20103;-80
2024/01/09 06:31:18;;;;;;;9.13;3.25;;;-6.40;99.90;;;;;;5107111;27;20484;-82
2024/01/09 06:33:44;;;;;;;9.98;3.78;;;-6.30;99.90;;;;;;5112759;27;20488;-81
2024/01/09 06:36:10;;;;;;;8.95;3.20;;;-6.50;99.90;;;;;;5113381;27;20061;-84
2024/01/09 06:38:35;;;;;;;6.28;2.35;;;-6.30;99.90;;;;;;5128685;27;20046;-82
2024/01/09 06:41:01;;;;;;;8.23;3.50;;;-6.30;99.90;;;;;;5120865;27;20043;-81
2024/01/09 06:43:27;;;;;;;9.38;3.50;;;-6.40;99.90;;;;;;5127512;27;20070;-83
2024/01/09 06:45:53;;;;;;;7.43;4.20;;;-6.50;99.90;;;;;;5127362;27;20047;-82
2024/01/09 06:48:19;;;;;;;6.00;2.55;;;-6.60;99.90;;;;;;5122711;27;20047;-80
2024/01/09 06:50:44;;;;;;;6.43;2.78;;;-6.40;99.90;;;;;;5090457;27;20035;-81
2024/01/09 06:53:10;;;;;;;9.20;3.38;;;-6.40;99.90;;;;;;5090539;27;20043;-83
2024/01/09 06:55:36;;;;;;;7.82;3.17;;;-6.60;99.90;;;;;;5110979;27;20133;-83
2024/01/09 06:58:03;;;;;;;10.00;3.38;;;-6.40;99.90;;;;;;5094581;27;20042;-84
2024/01/09 07:00:29;;;;;;;9.52;3.42;;;-6.00;99.90;;;;;;5091125;27;20089;-80
2024/01/09 07:02:55;;;;;;;8.02;3.83;;;-6.50;99.90;;;;;;5090646;27;20043;-83
2024/01/09 07:05:21;;;;;;;7.60;3.47;;;-6.50;99.90;;;;;;5107082;27;20039;-84
2024/01/09 07:07:46;;;;;;;7.93;2.78;;;-6.80;99.90;;;;;;5110854;27;20114;-84
2024/01/09 07:10:13;;;;;;;8.95;3.75;;;-6.50;99.90;;;;;;5126516;27;20696;-82
2024/01/09 07:12:38;;;;;;;10.50;4.15;;;-6.60;99.90;;;;;;5126541;27;20485;-81
2024/01/09 07:15:08;;;;;;;8.32;4.22;;;-6.60;99.90;;;;;;5114660;27;20166;-82
2024/01/09 07:17:34;;;;;;;6.65;3.35;;;-6.50;99.90;;;;;;5089770;27;20632;-81
2024/01/09 07:20:00;;;;;;;10.02;3.47;;;;;;;;;;5094566;27;20527;-82
2024/01/09 07:22:26;;;;;;;8.73;3.30;;;-6.60;99.90;;;;;;5107780;27;20062;-83
2024/01/09 07:24:52;;;;;;;7.47;3.47;;;-6.50;99.90;;;;;;5123878;27;20816;-82
2024/01/09 07:27:18;;;;;;;8.13;3.58;;;-6.60;99.90;;;;;;5113340;27;20102;-82
2024/01/09 07:29:44;;;;;;;7.40;3.28;;;-6.60;99.90;;;;;;5103549;27;20097;-83
2024/01/09 07:32:13;;;;;;;9.93;3.72;;;-6.60;99.90;;;;;;5112247;27;20435;-82
2024/01/09 07:34:38;;;;;;;8.38;3.25;;;-6.40;99.90;;;;;;5105588;27;20043;-84
2024/01/09 07:37:04;;;;;;;7.82;3.30;;;-6.70;99.90;;;;;;5127027;27;20042;-83
2024/01/09 07:39:30;;;;;;;9.52;3.63;;;-6.60;99.90;;;;;;5094645;27;20047;-84
2024/01/09 07:41:56;;;;;;;9.40;3.45;;;-4.90;99.90;;;;;;5089667;27;20171;-82
2024/01/09 07:44:22;;;;;;;8.93;4.07;;;-6.70;99.90;;;;;;5106611;27;20043;-84
2024/01/09 07:46:50;;;;;;;9.43;2.90;;;-6.50;99.90;;;;;;5096919;27;20123;-82
2024/01/09 07:49:16;;;;;;;11.38;4.30;;;-6.50;99.90;;;;;;5095634;27;20112;-83
2024/01/09 07:51:43;;;;;;;8.02;3.45;;;-6.40;99.90;;;;;;5109274;27;20155;-83
2024/01/09 07:54:08;;;;;;;7.45;3.30;;;-7.00;99.90;;;;;;5098579;27;20075;-84
2024/01/09 07:56:34;;;;;;;14.18;4.05;;;-6.60;99.90;;;;;;5122799;27;20134;-81
2024/01/09 07:59:00;;;;;;;8.82;3.25;;;-6.60;99.90;;;;;;5100450;27;20077;-82
2024/01/09 08:01:27;;;;;;;8.05;3.08;;;-6.50;99.90;;;;;;5125109;27;20035;-84
2024/01/09 08:03:53;;;;;;;5.78;2.65;;;-6.60;99.90;;;;;;5106592;27;20142;-82
2024/01/09 08:06:19;;;;;;;7.55;2.45;;;-6.30;99.90;;;;;;5091330;27;20043;-83
2024/01/09 08:08:44;;;;;;;7.43;3.30;;;-6.40;99.90;;;;;;5106266;27;20142;-82
2024/01/09 08:11:10;;;;;;;7.13;2.60;;;-6.50;99.90;;;;;;5102458;27;20042;-83
2024/01/09 08:13:37;;;;;;;8.75;3.03;;;-6.40;99.90;;;;;;5109818;27;20034;-84
2024/01/09 08:16:03;;;;;;;7.47;3.40;;;-6.30;99.90;;;;;;5090543;27;20054;-84
2024/01/09 08:18:29;;;;;;;5.38;2.67;;;-6.20;99.90;;;;;;5107774;27;20043;-82
2024/01/09 08:20:56;;;;;;;8.38;3.28;;;-6.20;99.90;;;;;;5105939;28;20115;-81
2024/01/09 08:23:24;;;;;;;10.32;3.67;;;-6.00;99.90;;;;;;5115728;27;20038;-83
2024/01/09 08:25:50;;;;;;;8.43;3.17;;;-6.10;99.90;;;;;;5108617;27;20407;-81
2024/01/09 08:28:16;;;;;;;7.80;2.70;;;-6.50;99.90;;;;;;5100130;27;20043;-81
2024/01/09 08:30:42;;;;;;;7.05;3.03;;;-5.20;99.90;;;;;;5090756;27;20049;-80
2024/01/09 08:33:08;;;;;;;6.90;3.45;;;-4.00;99.90;;;;;;5109218;27;20039;-81
2024/01/09 08:35:34;;;;;;;7.90;3.42;;;-6.10;99.90;;;;;;5108922;27;20047;-81
2024/01/09 08:37:59;;;;;;;7.18;2.95;;;-6.00;99.90;;;;;;5125654;27;20490;-81
2024/01/09 08:40:25;;;;;;;8.20;2.90;;;-6.20;99.90;;;;;;5089452;28;20537;-83
2024/01/09 08:42:54;;;;;;;7.75;3.17;;;-6.10;99.90;;;;;;5124739;27;20687;-84
2024/01/09 08:45:20;;;;;;;7.80;3.47;;;-5.30;99.90;;;;;;5107725;27;20666;-82
2024/01/09 08:47:45;;;;;;;7.20;2.72;;;-5.80;99.90;;;;;;5108357;27;20046;-81
2024/01/09 08:50:11;;;;;;;6.82;3.30;;;-6.00;99.90;;;;;;5108356;27;20082;-82
2024/01/09 08:52:37;;;;;;;9.27;3.55;;;-5.80;99.90;;;;;;5108395;27;20059;-81
2024/01/09 08:55:04;;;;;;;7.07;2.88;;;-5.80;99.90;;;;;;5109382;27;20043;-81
2024/01/09 08:57:30;;;;;;;8.40;3.30;;;-5.70;99.90;;;;;;5102343;27;20042;-84
2024/01/09 08:59:57;;;;;;;8.48;3.10;;;-5.60;99.90;;;;;;5114109;27;20099;-83
2024/01/09 09:02:24;;;;;;;6.05;2.50;;;-5.60;99.90;;;;;;5126319;27;20046;-81
2024/01/09 09:04:53;;;;;;;7.65;2.90;;;-5.60;99.90;;;;;;5110396;27;20039;-83
2024/01/09 09:07:18;;;;;;;10.93;3.70;;;-5.40;99.90;;;;;;5103207;28;20039;-83
2024/01/09 09:09:45;;;;;;;6.72;2.70;;;-5.50;99.90;;;;;;5126361;27;20476;-82
2024/01/09 09:12:12;;;;;;;8.40;3.15;;;-5.50;99.90;;;;;;5097170;28;20039;-83
2024/01/09 09:14:37;;;;;;;8.38;4.40;;;-3.10;99.90;;;;;;5089851;28;20662;-81
2024/01/09 09:17:04;;;;;;;7.00;3.13;;;-5.30;99.90;;;;;;5094420;27;20038;-83
2024/01/09 09:19:31;;;;;;;10.88;3.22;;;-5.30;99.90;;;;;;5099923;28;20047;-82
2024/01/09 09:22:01;;;;;;;6.38;3.00;;;-5.10;99.90;;;;;;5124929;27;20053;-84
2024/01/09 09:24:27;;;;;;;7.20;3.40;;;-5.00;99.90;;;;;;5097132;27;20039;-85
2024/01/09 09:26:53;;;;;;;8.70;3.00;;;-4.90;99.90;;;;;;5112070;27;20046;-83
2024/01/09 09:29:19;;;;;;;8.63;3.17;;;;;;;;;;5111589;27;20035;-83
2024/01/09 09:31:45;;;;;;;7.03;2.95;;;-4.70;99.90;;;;;;5114606;27;20043;-85
2024/01/09 09:34:11;;;;;;;6.00;2.78;;;-3.10;99.90;;;;;;5107592;27;20408;-83
2024/01/09 09:36:37;;;;;;;7.32;2.60;;;;;;;;;;5113386;27;20050;-84
2024/01/09 09:39:03;;;;;;;6.88;2.67;;;-4.50;99.90;;;;;;5108262;28;20443;-85
2024/01/09 09:41:31;;;;;;;5.18;2.33;;;-4.40;99.90;;;;;;5117818;27;20043;-84
2024/01/09 09:43:58;;;;;;;6.38;2.75;;;-4.30;99.90;;;;;;5124141;27;20070;-81
2024/01/09 09:46:23;;;;;;;7.28;2.95;;;-4.60;99.90;;;;;;5120505;27;20747;-83
2024/01/09 09:48:52;;;;;;;7.90;3.03;;;-4.30;99.90;;;;;;5108954;27;20038;-82
2024/01/09 09:51:19;;;;;;;6.45;2.47;;;-4.30;99.90;;;;;;5095663;27;20165;-86
2024/01/09 09:53:45;;;;;;;7.63;2.92;;;-4.30;99.90;;;;;;5093004;27;20054;-84
2024/01/09 09:56:13;;;;;;;6.07;2.85;;;-4.30;99.90;;;;;;5094421;27;20079;-85
2024/01/09 09:58:40;;;;;;;7.57;2.25;;;-4.30;99.90;;;;;;5128879;27;20047;-85
2024/01/09 10:01:09;;;;;;;7.07;2.60;;;-1.70;99.90;;;;;;5114065;27;20115;-83
2024/01/09 10:03:36;;;;;;;8.02;2.70;;;-4.00;99.90;;;;;;5096811;27;20039;-82
2024/01/09 10:06:05;;;;;;;15.18;3.63;;;-3.70;99.90;;;;;;5097182;27;20047;-81
2024/01/09 10:08:33;;;;;;;8.40;2.88;;;-4.20;99.90;;;;;;5135459;27;20352;-83
2024/01/09 10:11:03;;;;;;;7.55;3.22;;;-3.80;99.90;;;;;;5092086;27;20047;-81
2024/01/09 10:13:29;;;;;;;5.35;2.67;;;-3.70;99.90;;;;;;5092429;27;20039;-83
2024/01/09 10:15:57;;;;;;;7.13;3.42;;;-4.00;99.90;;;;;;5091647;27;20054;-84
2024/01/09 10:18:23;;;;;;;6.45;3.25;;;-3.80;99.90;;;;;;5092663;27;20570;-81
2024/01/09 10:20:49;;;;;;;9.98;2.85;;;-4.00;99.90;;;;;;5103998;27;20039;-82
2024/01/09 10:23:15;;;;;;;5.85;2.22;;;-3.90;99.90;;;;;;5106824;27;20039;-81
2024/01/09 10:25:41;;;;;;;5.63;2.45;;;-3.50;99.90;;;;;;5095258;27;20113;-82
2024/01/09 10:28:14;;;;;;;5.95;2.17;;;-3.80;99.90;;;;;;5107057;27;20046;-83
2024/01/09 10:30:40;;;;;;;6.72;1.83;;;-1.10;99.90;;;;;;5107686;27;20034;-82
2024/01/09 10:33:13;;;;;;;6.25;2.28;;;-2.20;99.90;;;;;;5110118;27;20043;-82
2024/01/09 10:35:40;;;;;;;5.78;2.30;;;-3.30;99.90;;;;;;5110547;27;20054;-82
2024/01/09 10:38:08;;;;;;;6.25;2.90;;;-2.90;99.90;;;;;;5091457;27;20484;-82
2024/01/09 10:40:35;;;;;;;4.95;2.47;;;-3.20;99.90;;;;;;5114446;27;20046;-82
2024/01/09 10:43:01;;;;;;;8.45;3.13;;;-3.30;99.90;;;;;;5107961;27;20126;-80
2024/01/09 10:45:27;;;;;;;6.80;2.25;;;-2.90;99.90;;;;;;5110999;27;20277;-83
2024/01/09 10:47:54;;;;;;;5.53;3.03;;;-1.80;99.90;;;;;;5098326;27;20039;-82
2024/01/09 10:50:21;;;;;;;5.82;2.83;;;-3.10;99.90;;;;;;5127546;27;20074;-81
2024/01/09 10:52:48;;;;;;;9.48;2.10;;;-2.70;99.90;;;;;;5110074;27;20046;-80
2024/01/09 10:55:18;;;;;;;4.82;1.92;;;-2.40;99.90;;;;;;5090944;27;20047;-80
2024/01/09 10:57:47;;;;;;;6.47;3.05;;;-3.00;99.90;;;;;;5110055;27;20487;-82
2024/01/09 11:00:14;;;;;;;5.70;2.85;;;-3.10;99.90;;;;;;5110501;27;20170;-83
2024/01/09 11:02:40;;;;;;;5.43;2.17;;;-3.10;99.90;;;;;;5110567;27;20768;-82
2024/01/09 11:05:07;;;;;;;5.75;2.03;;;-3.20;99.90;;;;;;5109599;27;20531;-81
2024/01/09 11:07:34;;;;;;;4.85;2.42;;;-3.10;99.90;;;;;;5104198;27;20833;-80
2024/01/09 11:10:00;;;;;;;6.55;3.20;;;-2.70;99.90;;;;;;5124030;27;20050;-82
2024/01/09 11:12:37;;;;;;;8.07;2.78;;;-1.10;99.90;;;;;;5126697;27;20161;-83
2024/01/09 11:15:10;;;;;;;6.03;2.20;;;-2.90;99.90;;;;;;5109767;27;20058;-81
2024/01/09 11:17:37;;;;;;;4.63;2.25;;;-2.60;99.90;;;;;;5116788;27;20051;-81
2024/01/09 11:20:10;;;;;;;6.32;2.35;;;-1.80;99.90;;;;;;5106081;27;20078;-81
2024/01/09 11:22:36;;;;;;;6.07;2.75;;;-2.80;99.90;;;;;;5089779;27;20046;-82
2024/01/09 11:25:10;;;;;;;5.70;2.70;;;-1.40;99.90;;;;;;5110545;27;20060;-82
2024/01/09 11:27:41;;;;;;;4.75;1.92;;;-2.60;99.90;;;;;;5126915;27;20511;-82
2024/01/09 11:30:09;;;;;;;6.22;2.30;;;-2.00;99.90;;;;;;5110195;27;20034;-81
2024/01/09 11:32:35;;;;;;;5.32;2.45;;;-2.60;99.90;;;;;;5096286;27;20535;-82
2024/01/09 11:35:30;;;;;;;4.38;2.22;;;-2.60;99.90;;;;;;5106896;27;20053;-81
2024/01/09 11:37:58;;;;;;;5.43;2.55;;;-2.40;99.90;;;;;;5072073;27;20500;-80
2024/01/09 11:40:24;;;;;;;5.28;2.10;;;-2.60;99.90;;;;;;5091601;27;20852;-82
2024/01/09 11:42:52;;;;;;;6.53;2.20;;;-2.50;99.90;;;;;;5106609;27;20099;-80
2024/01/09 11:45:22;;;;;;;4.10;1.80;;;-2.50;99.90;;;;;;5089547;27;20122;-82
2024/01/09 11:47:49;;;;;;;6.00;1.77;;;-1.10;99.90;;;;;;5106607;27;20066;-82
2024/01/09 11:50:15;;;;;;;4.28;1.80;;;-2.40;99.90;;;;;;5106940;27;20045;-82
2024/01/09 11:52:43;;;;;;;6.07;1.85;;;-2.90;99.90;;;;;;5110342;27;20507;-82
2024/01/09 11:55:10;;;;;;;4.90;1.48;;;-2.30;99.90;;;;;;5112830;27;20042;-82
2024/01/09 11:57:37;;;;;;;3.33;1.55;;;-2.10;99.90;;;;;;5126648;27;20047;-82
2024/01/09 12:00:04;;;;;;;4.53;1.90;;;-2.00;99.90;;;;;;5109370;27;20726;-82
2024/01/09 12:02:30;;;;;;;3.90;1.63;;;-1.90;99.90;;;;;;5126251;27;20049;-81
2024/01/09 12:04:57;;;;;;;3.38;1.75;;;-1.60;99.90;;;;;;5108013;27;20045;-79
2024/01/09 12:07:23;;;;;;;3.75;1.60;;;-2.10;99.90;;;;;;5125992;27;20084;-83
2024/01/09 12:09:50;;;;;;;4.32;1.77;;;-0.80;99.90;;;;;;5108891;27;20465;-81
2024/01/09 12:12:24;;;;;;;3.65;1.40;;;-1.40;99.90;;;;;;5108620;27;20126;-78
2024/01/09 12:14:57;;;;;;;3.25;1.42;;;-1.40;99.90;;;;;;5108337;27;20050;-82
2024/01/09 12:17:27;;;;;;;3.83;2.20;;;-2.00;99.90;;;;;;5100866;27;20467;-81
2024/01/09 12:19:53;;;;;;;5.82;1.85;;;-2.00;99.90;;;;;;5102581;27;20050;-80
2024/01/09 12:22:21;;;;;;;4.80;1.80;;;-1.80;99.90;;;;;;5114924;27;20122;-82
2024/01/09 12:24:53;;;;;;;4.40;1.83;;;-0.20;99.90;;;;;;5127173;27;20054;-80
2024/01/09 12:27:21;;;;;;;3.40;1.35;;;-0.60;99.90;;;;;;5108595;27;20130;-80
2024/01/09 12:29:47;;;;;;;4.40;1.92;;;-2.00;99.90;;;;;;5110150;28;20050;-81
2024/01/09 12:32:20;;;;;;;3.97;1.90;;;0.60;99.90;;;;;;5105655;28;20835;-82
2024/01/09 12:34:47;;;;;;;4.63;1.83;;;-2.00;99.90;;;;;;5107595;27;20377;-83
2024/01/09 12:37:13;;;;;;;4.35;1.55;;;-1.10;99.90;;;;;;5088301;28;20075;-83
2024/01/09 12:39:39;;;;;;;4.13;1.40;;;-1.90;99.90;;;;;;5087702;28;20127;-84
2024/01/09 12:42:12;;;;;;;2.85;1.25;;;-1.30;99.90;;;;;;5087795;28;20040;-82
2024/01/09 12:44:41;;;;;;;3.75;1.33;;;-1.80;99.90;;;;;;5088750;28;20055;-83
2024/01/09 12:47:14;;;;;;;5.25;1.73;;;-1.70;99.90;;;;;;5089139;28;20039;-82
2024/01/09 12:49:54;;;;;;;4.20;1.20;;;-2.00;99.90;;;;;;5092361;27;20058;-80
2024/01/09 12:52:20;;;;;;;2.58;0.95;;;-1.70;99.90;;;;;;5118089;28;20050;-81
2024/01/09 12:54:49;;;;;;;3.85;1.25;;;-1.70;99.90;;;;;;5109137;28;20035;-82
2024/01/09 12:57:15;;;;;;;2.75;1.15;;;-1.50;99.90;;;;;;5090030;28;20467;-82
2024/01/09 12:59:43;;;;;;;4.25;1.92;;;-1.70;99.90;;;;;;5096807;28;20038;-78
2024/01/09 13:02:09;;;;;;;7.43;1.40;;;-1.70;99.90;;;;;;5088705;28;20518;-79
2024/01/09 13:04:35;;;;;;;3.60;1.40;;;-1.70;99.90;;;;;;5092270;27;20038;-82
2024/01/09 13:07:03;;;;;;;3.97;1.20;;;-1.40;99.90;;;;;;5109133;27;20038;-80
2024/01/09 13:09:29;;;;;;;4.90;1.35;;;-1.00;99.90;;;;;;5096601;27;20031;-81